Time;durP1;ratioP1;P1;durP2;ratioP2;P2;SDS_P1;SDS_P2;PMS_P1;PMS_P2;Temp;Humidity;BMP_temperature;BMP_pressure;BME280_temperature;BME280_humidity;BME280_pressure;Samples;Min_cycle;Max_cycle;Signal;HPM_P1;HPM_P2
2023/02/20 00:02:25;;;;;;;5.80;3.43;;;;;;;12.45;53.35;98566.66;4999025;28;20189;-73
2023/02/20 00:04:50;;;;;;;5.77;3.10;;;;;;;12.47;53.63;98571.78;5002430;28;20180;-70
2023/02/20 00:07:16;;;;;;;8.00;3.07;;;;;;;12.54;53.47;98571.13;4997465;28;20189;-71
2023/02/20 00:09:42;;;;;;;5.70;2.90;;;;;;;12.53;53.73;98569.47;4986432;28;20214;-70
2023/02/20 00:12:07;;;;;;;5.03;2.50;;;;;;;12.58;53.47;98569.09;4989783;28;20933;-70
2023/02/20 00:14:33;;;;;;;6.40;3.37;;;;;;;12.60;53.21;98569.78;4988580;28;20260;-70
2023/02/20 00:16:58;;;;;;;4.47;3.10;;;;;;;12.43;53.57;98569.41;4988285;28;20196;-69
2023/02/20 00:19:23;;;;;;;5.30;2.90;;;;;;;12.50;53.99;98574.16;4991235;28;20661;-69
2023/02/20 00:21:50;;;;;;;7.73;3.17;;;;;;;12.50;53.89;98567.09;4975620;28;20234;-70
2023/02/20 00:24:16;;;;;;;5.20;3.10;;;;;;;12.46;53.89;98562.25;4988872;28;20181;-69
2023/02/20 00:26:46;;;;;;;7.73;3.33;;;;;;;12.51;53.77;98560.03;5001948;28;20439;-69
2023/02/20 00:29:15;;;;;;;6.50;3.17;;;;;;;12.48;53.85;98560.28;4979301;28;20460;-69
2023/02/20 00:31:40;;;;;;;6.20;3.13;;;;;;;12.39;54.59;98554.88;4980974;28;20466;-70
2023/02/20 00:34:06;;;;;;;5.30;2.97;;;;;;;12.41;53.99;98555.56;4998594;28;20499;-70
2023/02/20 00:36:31;;;;;;;7.10;2.80;;;;;;;12.39;54.34;98561.94;4976552;28;20204;-70
2023/02/20 00:38:57;;;;;;;5.87;2.97;;;;;;;12.46;54.06;98565.69;4998879;28;20711;-69
2023/02/20 00:41:22;;;;;;;7.33;3.40;;;;;;;12.46;54.05;98567.50;4976597;28;20288;-69
2023/02/20 00:43:48;;;;;;;5.57;3.27;;;;;;;12.38;53.55;98570.78;4981140;28;20308;-70
2023/02/20 00:46:14;;;;;;;5.53;2.77;;;;;;;12.50;53.77;98574.16;4993040;28;20260;-69
2023/02/20 00:48:39;;;;;;;5.27;3.17;;;;;;;12.46;53.98;98578.03;4975220;28;20314;-69
2023/02/20 00:51:05;;;;;;;6.80;3.20;;;;;;;12.52;53.59;98583.59;4990626;28;20296;-70
2023/02/20 00:53:30;;;;;;;5.83;3.30;;;;;;;12.58;53.56;98595.38;4996052;28;20192;-69
2023/02/20 00:55:55;;;;;;;6.20;2.90;;;;;;;12.50;53.63;98589.91;4994382;28;20192;-69
2023/02/20 00:58:21;;;;;;;9.70;3.30;;;;;;;12.52;53.99;98583.59;4998558;28;20185;-68
2023/02/20 01:00:46;;;;;;;9.53;3.07;;;;;;;12.55;53.66;98585.13;4997235;28;20276;-70
2023/02/20 01:03:13;;;;;;;5.00;3.10;;;;;;;12.55;53.43;98583.31;4999310;28;20202;-69
2023/02/20 01:05:38;;;;;;;10.03;3.47;;;;;;;12.57;53.67;98585.81;4981663;28;20699;-68
2023/02/20 01:08:04;;;;;;;8.93;3.50;;;;;;;12.53;53.52;98581.78;4999322;28;20514;-70
2023/02/20 01:10:29;;;;;;;6.47;3.30;;;;;;;12.51;53.72;98576.66;4981829;28;20207;-69
2023/02/20 01:12:55;;;;;;;5.00;3.53;;;;;;;12.53;53.32;98580.00;4998178;28;20264;-69
2023/02/20 01:15:20;;;;;;;6.97;3.43;;;;;;;12.52;52.83;98582.75;5003865;28;20283;-70
2023/02/20 01:17:46;;;;;;;6.63;3.43;;;;;;;12.47;52.73;98584.94;4995220;28;20199;-70
2023/02/20 01:20:11;;;;;;;6.73;3.27;;;;;;;12.37;52.89;98585.72;4990712;28;20824;-68
2023/02/20 01:22:37;;;;;;;10.20;4.00;;;;;;;12.45;52.35;98587.69;4997618;28;20197;-69
2023/02/20 01:25:03;;;;;;;5.43;3.00;;;;;;;12.29;52.76;98578.47;5000570;28;20270;-68
2023/02/20 01:27:28;;;;;;;9.00;3.10;;;;;;;12.29;52.89;98572.38;4949097;28;20191;-71
2023/02/20 01:29:54;;;;;;;8.47;3.20;;;;;;;11.96;52.93;98561.91;4998132;28;20463;-67
2023/02/20 01:32:19;;;;;;;7.73;3.40;;;;;;;12.03;52.50;98562.28;4998419;28;20196;-68
2023/02/20 01:34:45;;;;;;;5.80;3.07;;;;;;;12.19;52.75;98571.50;4998168;28;20540;-69
2023/02/20 01:37:12;;;;;;;6.70;3.00;;;;;;;12.27;52.63;98569.91;5000556;28;20223;-68
2023/02/20 01:39:38;;;;;;;4.67;3.30;;;;;;;12.34;52.17;98561.47;4997153;28;20201;-69
2023/02/20 01:42:05;;;;;;;6.53;3.47;;;;;;;12.19;51.55;98550.47;4983189;28;20473;-70
2023/02/20 01:44:34;;;;;;;7.77;3.63;;;;;;;12.29;51.45;98546.09;4985392;28;20173;-69
2023/02/20 01:47:00;;;;;;;4.83;2.80;;;;;;;12.28;52.03;98554.94;4982702;28;20435;-69
2023/02/20 01:49:54;;;;;;;7.63;3.13;;;;;;;12.32;51.81;98555.50;5003702;28;20463;-69
2023/02/20 01:52:28;;;;;;;5.60;2.87;;;;;;;12.31;51.56;98544.19;4973508;28;20428;-69
2023/02/20 01:54:58;;;;;;;4.27;2.90;;;;;;;12.32;51.55;98543.22;4985462;28;20523;-69
2023/02/20 01:57:25;;;;;;;5.53;3.07;;;;;;;12.35;50.90;98537.69;4978439;28;20416;-68
2023/02/20 01:59:53;;;;;;;5.47;2.90;;;;;;;12.34;51.50;98538.66;4987589;28;20442;-69
2023/02/20 02:02:19;;;;;;;7.40;3.03;;;;;;;12.30;51.92;98534.63;4979238;28;20507;-69
2023/02/20 02:04:45;;;;;;;7.60;3.17;;;;;;;12.41;51.73;98536.34;4989971;28;20565;-67
2023/02/20 02:07:11;;;;;;;6.63;2.70;;;;;;;12.38;51.17;98545.31;4978892;28;20193;-69
2023/02/20 02:09:53;;;;;;;4.13;2.83;;;;;;;12.34;51.63;98541.28;5002741;28;20478;-69
2023/02/20 02:12:19;;;;;;;4.80;2.90;;;;;;;12.39;51.28;98540.91;4967087;28;20240;-70
2023/02/20 02:14:45;;;;;;;9.50;3.47;;;;;;;12.39;51.60;98533.81;5002115;28;20428;-70
2023/02/20 02:17:34;;;;;;;6.13;2.50;;;;;;;12.42;51.92;98530.94;4992425;28;20197;-69
2023/02/20 02:20:20;;;;;;;7.47;2.87;;;;;;;12.43;51.95;98527.34;4973324;28;20214;-70
2023/02/20 02:23:22;;;;;;;4.90;2.97;;;;;;;12.49;52.15;98525.13;4998578;28;20543;-69
2023/02/20 02:25:59;;;;;;;5.27;2.90;;;;;;;12.51;51.82;98528.47;4998294;28;20430;-70
2023/02/20 02:28:33;;;;;;;7.63;3.20;;;;;;;12.50;51.46;98522.41;4985172;28;20439;-71
2023/02/20 02:31:17;;;;;;;7.63;3.13;;;;;;;12.54;51.94;98533.47;5004930;28;20442;-68
2023/02/20 02:34:21;;;;;;;5.67;3.07;;;;;;;12.54;51.80;98529.03;4990859;28;20419;-70
2023/02/20 02:37:18;;;;;;;5.83;3.27;;;;;;;12.58;51.82;98524.38;4994467;28;20411;-69
2023/02/20 02:40:03;;;;;;;4.30;2.53;;;;;;;12.56;51.47;98515.78;4974578;28;20959;-70
2023/02/20 02:42:48;;;;;;;4.97;2.63;;;;;;;12.59;51.30;98523.41;5003056;28;20451;-69
2023/02/20 02:45:21;;;;;;;11.57;3.13;;;;;;;12.58;51.63;98513.84;4999758;28;20409;-69
2023/02/20 02:47:55;;;;;;;6.47;2.97;;;;;;;12.62;51.31;98525.75;4987687;28;20428;-70
2023/02/20 02:50:36;;;;;;;3.23;2.50;;;;;;;12.63;51.01;98516.06;5001961;28;20464;-69
2023/02/20 02:53:04;;;;;;;3.47;2.50;;;;;;;12.58;51.56;98519.94;4980586;28;20421;-69
2023/02/20 02:55:32;;;;;;;4.40;2.60;;;;;;;12.47;51.38;98522.66;4979417;28;20424;-69
2023/02/20 02:57:59;;;;;;;10.17;3.30;;;;;;;12.51;51.77;98512.69;4999239;28;20507;-70
2023/02/20 03:00:27;;;;;;;5.63;3.00;;;;;;;12.50;51.74;98511.03;4982668;28;20443;-71
2023/02/20 03:03:07;;;;;;;8.00;2.80;;;;;;;12.57;51.19;98506.91;4979080;28;20428;-69
2023/02/20 03:05:59;;;;;;;3.17;2.23;;;;;;;12.59;51.46;98508.44;4970443;28;20481;-70
2023/02/20 03:08:32;;;;;;;6.77;3.07;;;;;;;12.59;51.25;98511.06;4986692;28;20815;-70
2023/02/20 03:11:11;;;;;;;5.87;2.60;;;;;;;12.51;51.21;98512.69;4981908;28;20447;-69
2023/02/20 03:17:10;;;;;;;5.80;2.80;;;;;;;12.36;51.82;98510.41;4983991;28;20454;-71
2023/02/20 03:19:51;;;;;;;4.17;2.80;;;;;;;12.36;51.58;98507.78;4989568;28;20424;-70
2023/02/20 03:22:42;;;;;;;5.97;2.93;;;;;;;12.41;52.26;98513.50;4958874;28;20418;-69
2023/02/20 03:25:16;;;;;;;11.47;2.83;;;;;;;12.35;51.91;98511.38;5001376;28;20511;-69
2023/02/20 03:27:47;;;;;;;8.30;3.10;;;;;;;12.37;51.77;98512.09;4982833;28;21123;-70
2023/02/20 03:30:28;;;;;;;6.43;2.93;;;;;;;12.28;52.04;98515.50;4985045;28;21024;-69
2023/02/20 03:44:02;;;;;;;5.43;2.70;;;;;;;12.21;52.09;98502.06;4965038;28;20482;-70
2023/02/20 03:46:28;;;;;;;8.80;2.80;;;;;;;12.23;51.85;98517.69;4982104;28;20881;-69
2023/02/20 03:49:02;;;;;;;9.43;3.27;;;;;;;12.34;52.08;98516.78;4980207;28;20820;-70
2023/02/20 03:51:27;;;;;;;4.77;2.90;;;;;;;12.23;51.74;98515.06;4982173;28;20438;-70
2023/02/20 03:53:53;;;;;;;5.63;2.63;;;;;;;12.27;51.91;98517.31;4980526;28;20460;-70
2023/02/20 03:56:32;;;;;;;9.60;3.03;;;;;;;12.26;52.33;98514.81;4992891;28;20251;-71
2023/02/20 03:59:17;;;;;;;8.13;2.83;;;;;;;12.30;52.03;98516.22;4981115;28;20187;-71
2023/02/20 04:01:44;;;;;;;7.67;3.40;;;;;;;12.29;51.71;98507.50;4976922;28;20910;-69
2023/02/20 04:04:13;;;;;;;5.80;3.00;;;;;;;12.28;52.04;98502.38;4980343;28;20987;-69
2023/02/20 04:06:40;;;;;;;5.23;3.03;;;;;;;12.31;52.27;98510.00;4995222;28;20514;-69
2023/02/20 04:09:16;;;;;;;4.40;2.87;;;;;;;12.31;51.65;98507.38;4981445;28;20456;-69
2023/02/20 04:11:49;;;;;;;6.60;3.50;;;;;;;12.26;52.11;98499.03;4974397;28;20423;-69
2023/02/20 04:14:16;;;;;;;6.57;3.10;;;;;;;12.19;51.90;98498.72;4963268;28;20422;-69
2023/02/20 04:16:46;;;;;;;8.50;3.40;;;;;;;12.13;52.19;98494.00;4973918;28;20526;-68
2023/02/20 04:19:11;;;;;;;6.43;3.23;;;;;;;12.14;52.50;98501.75;5000417;28;20432;-68
2023/02/20 04:21:45;;;;;;;6.10;3.00;;;;;;;12.06;52.06;98495.47;4967445;28;20474;-70
2023/02/20 04:24:13;;;;;;;7.20;3.00;;;;;;;11.98;52.47;98485.63;4983155;28;20212;-68
2023/02/20 04:26:38;;;;;;;11.37;3.60;;;;;;;11.93;52.40;98496.47;5000734;28;20434;-68
2023/02/20 04:29:04;;;;;;;7.77;3.43;;;;;;;11.84;52.95;98489.38;4951591;28;20456;-70
2023/02/20 04:31:30;;;;;;;8.13;3.30;;;;;;;11.79;53.25;98491.56;4982806;28;20181;-71
2023/02/20 04:33:55;;;;;;;8.37;3.20;;;;;;;11.69;53.02;98486.25;4960700;28;20437;-70
2023/02/20 04:36:21;;;;;;;4.50;3.00;;;;;;;11.68;52.93;98489.84;4998838;28;20326;-70
2023/02/20 04:38:46;;;;;;;7.77;3.23;;;;;;;11.76;52.81;98487.41;4998659;28;20180;-71
2023/02/20 04:41:12;;;;;;;7.17;3.17;;;;;;;11.71;52.82;98479.09;4975235;28;20197;-68
2023/02/20 04:43:37;;;;;;;7.43;2.73;;;;;;;11.63;53.23;98481.50;4961818;28;20581;-68
2023/02/20 04:46:03;;;;;;;5.23;2.87;;;;;;;11.67;52.80;98483.75;5000392;28;20256;-69
2023/02/20 04:48:28;;;;;;;9.30;3.37;;;;;;;11.65;52.72;98476.97;4992134;28;20555;-70
2023/02/20 04:50:54;;;;;;;6.07;3.03;;;;;;;11.60;53.00;98474.72;4979874;28;20199;-70
2023/02/20 04:53:19;;;;;;;9.33;3.33;;;;;;;11.52;53.16;98474.53;4999800;28;20201;-69
2023/02/20 04:55:45;;;;;;;5.77;3.30;;;;;;;11.58;52.72;98484.50;4998762;28;20539;-70
2023/02/20 04:58:10;;;;;;;7.70;3.43;;;;;;;11.60;52.95;98482.59;4984762;28;20209;-69
2023/02/20 05:00:36;;;;;;;6.33;3.60;;;;;;;11.50;53.32;98492.19;4978420;28;20219;-68
2023/02/20 05:03:01;;;;;;;6.10;3.80;;;;;;;11.50;53.14;98500.09;4982805;28;20188;-70
2023/02/20 05:05:28;;;;;;;9.60;3.87;;;;;;;11.45;53.31;98502.25;4989984;28;20215;-69
2023/02/20 05:07:54;;;;;;;5.23;3.20;;;;;;;11.42;52.99;98499.84;4979316;28;20215;-69
2023/02/20 05:10:21;;;;;;;7.77;3.87;;;;;;;11.45;53.29;98503.09;5001772;28;20952;-69
2023/02/20 05:12:46;;;;;;;8.33;3.43;;;;;;;11.47;52.84;98501.16;5002407;28;20431;-68
2023/02/20 05:15:12;;;;;;;8.17;4.20;;;;;;;11.44;52.54;98504.03;4985099;28;20420;-69
2023/02/20 05:17:37;;;;;;;6.20;3.80;;;;;;;11.46;52.72;98498.66;4979977;28;20724;-69
2023/02/20 05:20:05;;;;;;;7.73;3.87;;;;;;;11.49;52.64;98493.16;4989499;28;20640;-70
2023/02/20 05:22:30;;;;;;;6.27;3.63;;;;;;;11.31;52.79;98495.50;4981288;28;20211;-69
2023/02/20 05:24:55;;;;;;;6.70;3.50;;;;;;;11.32;52.82;98494.56;5002953;28;20438;-68
2023/02/20 05:27:22;;;;;;;8.20;3.60;;;;;;;11.31;53.17;98488.44;4985902;28;20189;-69
2023/02/20 05:29:53;;;;;;;7.77;4.50;;;;;;;11.30;53.35;98496.47;5008410;28;20208;-69
2023/02/20 05:32:19;;;;;;;6.97;3.80;;;;;;;11.32;53.16;98497.19;4986734;28;20426;-68
2023/02/20 05:34:45;;;;;;;7.93;4.37;;;;;;;11.19;53.28;98490.31;5003401;28;20434;-70
2023/02/20 05:37:12;;;;;;;11.07;4.43;;;;;;;11.23;53.25;98488.25;5006317;28;21033;-67
2023/02/20 05:39:38;;;;;;;10.07;3.97;;;;;;;11.13;53.61;98485.53;4980857;28;20801;-70
2023/02/20 05:42:07;;;;;;;8.87;4.50;;;;;;;11.07;53.81;98491.31;5005040;28;20431;-70
2023/02/20 05:44:33;;;;;;;9.90;4.50;;;;;;;11.07;53.93;98488.69;4986760;28;20184;-69
2023/02/20 05:46:58;;;;;;;8.57;4.70;;;;;;;11.16;53.82;98493.16;4986722;28;20435;-69
2023/02/20 05:49:24;;;;;;;7.80;3.80;;;;;;;11.03;53.40;98489.88;5005275;28;20605;-70
2023/02/20 05:51:50;;;;;;;6.77;3.90;;;;;;;10.87;54.30;98485.03;5004697;28;20177;-69
2023/02/20 05:54:16;;;;;;;9.53;4.80;;;;;;;10.97;54.33;98487.72;4988592;28;20244;-70
2023/02/20 05:56:43;;;;;;;10.90;4.73;;;;;;;10.91;54.34;98489.91;5002494;28;20431;-68
2023/02/20 05:59:09;;;;;;;13.93;4.80;;;;;;;11.02;54.03;98483.81;4989567;28;20423;-70
2023/02/20 06:01:35;;;;;;;9.07;4.50;;;;;;;11.08;54.03;98487.72;4980590;28;20423;-69
2023/02/20 06:04:00;;;;;;;8.47;4.20;;;;;;;10.96;54.27;98486.91;4999289;28;20437;-69
2023/02/20 06:06:36;;;;;;;8.00;4.40;;;;;;;11.01;53.72;98500.50;5003339;28;20259;-69
2023/02/20 06:09:03;;;;;;;11.70;4.57;;;;;;;10.93;54.11;98496.81;4991448;28;20208;-69
2023/02/20 06:11:28;;;;;;;8.70;4.97;;;;;;;10.86;54.30;98493.84;4976557;28;20449;-69
2023/02/20 06:13:54;;;;;;;9.37;4.33;;;;;;;10.89;54.63;98498.84;4992961;28;20518;-69
2023/02/20 06:16:23;;;;;;;6.83;4.03;;;;;;;10.83;54.34;98494.94;4973080;28;20187;-68
2023/02/20 06:18:48;;;;;;;8.80;4.40;;;;;;;10.87;54.10;98498.13;4986602;28;20184;-69
2023/02/20 06:21:14;;;;;;;9.33;4.63;;;;;;;10.82;53.86;98497.66;5003661;28;20530;-70
2023/02/20 06:23:42;;;;;;;9.03;4.00;;;;;;;10.84;54.35;98504.44;5007159;28;20216;-69
2023/02/20 06:26:07;;;;;;;11.80;4.27;;;;;;;10.89;53.85;98504.09;5004143;28;20549;-69
2023/02/20 06:28:34;;;;;;;5.73;4.20;;;;;;;10.85;53.79;98506.13;5013661;28;20418;-69
2023/02/20 06:30:59;;;;;;;7.43;4.20;;;;;;;10.82;54.40;98495.91;4988286;28;20209;-70
2023/02/20 06:33:25;;;;;;;7.80;4.20;;;;;;;10.87;54.36;98495.53;5004267;28;20482;-70
2023/02/20 06:35:50;;;;;;;7.00;4.10;;;;;;;10.87;54.04;98498.97;5007536;28;20205;-70
2023/02/20 06:38:16;;;;;;;6.77;4.00;;;;;;;10.90;53.97;98506.59;5004968;28;20192;-70
2023/02/20 06:40:41;;;;;;;8.07;4.30;;;;;;;10.94;53.71;98507.19;5011930;28;20681;-70
2023/02/20 06:43:06;;;;;;;8.20;4.00;;;;;;;10.84;53.69;98501.81;4988734;28;20185;-69
2023/02/20 06:45:32;;;;;;;7.37;4.57;;;;;;;10.83;54.34;98510.69;5015465;28;20223;-71
2023/02/20 06:47:57;;;;;;;10.07;4.50;;;;;;;10.73;53.75;98517.56;5003790;28;20271;-69
2023/02/20 06:50:23;;;;;;;8.20;4.70;;;;;;;10.66;54.48;98519.03;5003843;28;20306;-71
2023/02/20 06:52:48;;;;;;;11.00;5.00;;;;;;;10.73;54.46;98525.44;4993363;28;20722;-71
2023/02/20 06:55:14;;;;;;;7.90;3.77;;;;;;;10.72;54.18;98519.38;4997859;28;20272;-72
2023/02/20 06:57:39;;;;;;;13.87;4.80;;;;;;;10.76;54.29;98522.59;4983440;28;20252;-71
2023/02/20 07:00:05;;;;;;;7.63;3.90;;;;;;;10.88;53.66;98523.41;4992429;28;20309;-71
2023/02/20 07:02:31;;;;;;;8.00;3.97;;;;;;;10.98;53.44;98523.50;4984637;28;20234;-70
2023/02/20 07:04:56;;;;;;;7.77;4.27;;;;;;;10.99;53.93;98526.00;4981204;28;20909;-71
2023/02/20 07:07:22;;;;;;;9.40;3.70;;;;;;;11.14;53.53;98525.75;5000401;28;20188;-70
2023/02/20 07:09:47;;;;;;;12.37;4.77;;;;;;;11.22;53.54;98520.69;4985669;28;20216;-69
2023/02/20 07:12:13;;;;;;;11.13;4.20;;;;;;;11.22;53.25;98515.44;4995261;28;20189;-71
2023/02/20 07:14:38;;;;;;;9.10;3.87;;;;;;;11.26;53.24;98531.78;5000922;28;20187;-71
2023/02/20 07:17:04;;;;;;;9.50;4.07;;;;;;;11.31;52.97;98527.00;4980002;28;20845;-68
2023/02/20 07:19:29;;;;;;;22.07;3.80;;;;;;;11.43;52.92;98533.03;5004495;28;20677;-72
2023/02/20 07:21:55;;;;;;;14.63;4.60;;;;;;;11.49;52.80;98535.97;5002467;28;20195;-71
2023/02/20 07:24:20;;;;;;;7.53;4.33;;;;;;;11.43;52.41;98528.63;4995974;28;20197;-71
2023/02/20 07:26:46;;;;;;;8.70;4.20;;;;;;;11.48;52.73;98536.13;5003219;28;20250;-72
2023/02/20 07:29:12;;;;;;;8.70;4.17;;;;;;;11.44;52.93;98540.81;4965042;28;20604;-69
2023/02/20 07:31:38;;;;;;;9.40;3.73;;;;;;;11.37;52.46;98542.25;4979964;28;20430;-71
2023/02/20 07:34:03;;;;;;;9.17;4.00;;;;;;;11.42;52.66;98537.47;5005692;28;20423;-70
2023/02/20 07:36:28;;;;;;;7.93;3.70;;;;;;;11.35;52.99;98537.13;4997229;28;20187;-70
2023/02/20 07:38:54;;;;;;;10.43;4.10;;;;;;;11.34;52.19;98529.38;4986522;28;20570;-71
2023/02/20 07:41:20;;;;;;;10.47;4.67;;;;;;;11.36;52.51;98536.16;4999266;28;20204;-71
2023/02/20 07:43:45;;;;;;;9.13;4.27;;;;;;;11.41;52.67;98529.69;4994852;28;20570;-67
2023/02/20 07:46:11;;;;;;;10.10;3.80;;;;;;;11.47;51.98;98521.31;4991920;28;20239;-70
2023/02/20 07:48:36;;;;;;;5.40;3.13;;;;;;;11.46;52.07;98522.28;4991808;28;20271;-70
2023/02/20 07:51:02;;;;;;;6.97;3.90;;;;;;;11.51;52.09;98526.19;5001038;28;20217;-69
2023/02/20 07:53:27;;;;;;;7.80;3.70;;;;;;;11.61;52.07;98525.44;4998297;28;20195;-71
2023/02/20 07:55:53;;;;;;;11.53;3.53;;;;;;;11.66;51.77;98525.91;4991585;28;20196;-69
2023/02/20 07:58:18;;;;;;;6.43;3.80;;;;;;;11.67;51.74;98517.06;4993041;28;20241;-70
2023/02/20 08:00:44;;;;;;;8.43;3.60;;;;;;;11.78;51.36;98522.25;4989994;28;20193;-69
2023/02/20 08:03:10;;;;;;;7.53;3.40;;;;;;;11.71;50.90;98525.50;4991807;28;20565;-70
2023/02/20 08:05:35;;;;;;;9.27;3.70;;;;;;;11.79;50.97;98517.81;4993289;28;20431;-70
2023/02/20 08:08:00;;;;;;;7.47;3.60;;;;;;;11.73;50.90;98510.47;4991954;28;20192;-70
2023/02/20 08:10:27;;;;;;;8.33;3.40;;;;;;;11.75;50.83;98512.00;4991510;28;20214;-70
2023/02/20 08:12:53;;;;;;;9.63;3.80;;;;;;;11.81;50.80;98511.50;4991669;28;20295;-71
2023/02/20 08:15:20;;;;;;;9.60;4.00;;;;;;;11.92;50.64;98512.38;4975859;28;20425;-71
2023/02/20 08:17:45;;;;;;;7.60;3.23;;;;;;;12.11;50.10;98519.59;4993535;28;20188;-70
2023/02/20 08:20:11;;;;;;;8.20;3.17;;;;;;;12.28;49.93;98510.25;4987189;28;20893;-72
2023/02/20 08:22:37;;;;;;;9.20;3.53;;;;;;;12.51;49.22;98502.19;4989379;28;20192;-70
2023/02/20 08:25:03;;;;;;;7.43;3.13;;;;;;;12.68;48.47;98488.41;4981935;28;20188;-70
2023/02/20 08:27:29;;;;;;;9.30;3.93;;;;;;;12.75;48.15;98496.59;4988411;28;20939;-72
2023/02/20 08:29:55;;;;;;;7.40;3.23;;;;;;;13.14;47.50;98487.91;4983171;28;20473;-72
2023/02/20 08:32:20;;;;;;;8.63;3.53;;;;;;;13.49;47.18;98487.41;4982307;28;20511;-72
2023/02/20 08:34:46;;;;;;;8.13;2.80;;;;;;;13.57;46.45;98477.97;5000996;28;20263;-70
2023/02/20 08:37:14;;;;;;;8.83;3.23;;;;;;;13.96;45.84;98486.66;4992352;28;20299;-70
2023/02/20 08:39:40;;;;;;;7.03;3.00;;;;;;;14.26;44.58;98489.19;4990477;28;20205;-74
2023/02/20 08:42:05;;;;;;;7.10;2.60;;;;;;;14.54;44.38;98479.50;5000971;28;20468;-72
2023/02/20 08:44:31;;;;;;;6.27;2.90;;;;;;;14.71;43.98;98477.91;4997391;28;20192;-72
2023/02/20 08:46:56;;;;;;;6.70;3.13;;;;;;;15.06;43.26;98475.47;5007841;28;20192;-71
2023/02/20 08:49:22;;;;;;;7.93;3.03;;;;;;;15.42;42.65;98475.47;5001214;28;20209;-70
2023/02/20 08:51:51;;;;;;;6.93;2.93;;;;;;;15.67;41.47;98473.00;4990007;28;20185;-71
2023/02/20 08:54:16;;;;;;;6.10;3.10;;;;;;;15.94;40.76;98479.16;5004629;28;20281;-72
2023/02/20 08:56:42;;;;;;;5.60;3.03;;;;;;;16.13;40.01;98478.94;4994298;28;20456;-72
2023/02/20 08:59:07;;;;;;;5.97;2.50;;;;;;;16.32;39.24;98479.72;4983976;28;20616;-71
2023/02/20 09:01:33;;;;;;;5.17;2.73;;;;;;;16.37;39.32;98484.53;4981657;28;20200;-73
2023/02/20 09:03:59;;;;;;;8.50;2.90;;;;;;;16.70;39.01;98480.19;5006809;28;20192;-72
2023/02/20 09:06:27;;;;;;;6.90;2.73;;;;;;;16.97;38.32;98475.66;5005118;28;20184;-71
2023/02/20 09:08:52;;;;;;;4.93;2.33;;;;;;;17.24;37.87;98479.03;5001352;28;20466;-72
2023/02/20 09:11:18;;;;;;;4.80;2.47;;;;;;;17.12;37.58;98467.09;4982988;28;20875;-71
2023/02/20 09:13:44;;;;;;;7.23;2.60;;;;;;;17.36;37.12;98460.97;4985858;28;20189;-72
2023/02/20 09:16:11;;;;;;;3.47;2.40;;;;;;;17.66;37.19;98454.16;4984945;28;20222;-72
2023/02/20 09:18:37;;;;;;;4.00;2.40;;;;;;;17.89;36.63;98453.50;4996224;28;20453;-71
2023/02/20 09:21:02;;;;;;;12.87;2.47;;;;;;;18.10;36.02;98452.94;4977386;28;20440;-73
2023/02/20 09:23:28;;;;;;;5.77;2.40;;;;;;;17.91;35.98;98453.31;5009153;28;20181;-71
2023/02/20 09:25:54;;;;;;;6.03;2.70;;;;;;;18.17;36.07;98450.44;4984690;28;20592;-72
2023/02/20 09:28:19;;;;;;;5.93;2.70;;;;;;;18.58;35.13;98458.25;4989998;28;20264;-71
2023/02/20 09:30:45;;;;;;;8.00;2.67;;;;;;;18.77;34.29;98461.50;5004375;28;20583;-72
2023/02/20 09:33:10;;;;;;;3.93;2.17;;;;;;;18.64;33.95;98458.56;4968004;28;20224;-72
2023/02/20 09:35:36;;;;;;;5.20;2.30;;;;;;;18.89;33.67;98448.63;5008680;28;20196;-72
2023/02/20 09:38:01;;;;;;;5.17;2.53;;;;;;;18.91;33.29;98451.09;4992979;28;20227;-72
2023/02/20 09:40:29;;;;;;;8.20;2.50;;;;;;;19.08;33.62;98438.59;4993928;28;20215;-72
2023/02/20 09:43:09;;;;;;;5.33;2.23;;;;;;;19.38;33.09;98431.53;4976356;28;20193;-70
2023/02/20 09:45:35;;;;;;;7.43;2.37;;;;;;;19.53;32.49;98430.75;4975297;28;20416;-73
2023/02/20 09:48:32;;;;;;;13.07;2.03;;;;;;;19.64;32.82;98438.28;4992525;28;20428;-71
2023/02/20 09:51:04;;;;;;;7.00;2.60;;;;;;;20.03;32.63;98434.59;4976887;28;20447;-71
2023/02/20 09:53:34;;;;;;;4.40;2.10;;;;;;;20.04;31.78;98438.91;4982113;28;20443;-70
2023/02/20 09:56:00;;;;;;;6.80;2.50;;;;;;;19.48;32.33;98437.44;4975964;28;21005;-70
2023/02/20 09:58:36;;;;;;;5.67;2.37;;;;;;;19.32;32.86;98441.06;4957410;28;20519;-70
2023/02/20 10:01:03;;;;;;;4.20;2.33;;;;;;;19.35;32.87;98445.19;4973449;28;20450;-70
2023/02/20 10:03:46;;;;;;;10.40;2.27;;;;;;;19.41;33.29;98428.50;4994089;28;20512;-71
2023/02/20 10:06:16;;;;;;;8.23;2.50;;;;;;;19.48;32.90;98426.78;4955309;28;20486;-71
2023/02/20 10:08:42;;;;;;;5.17;2.23;;;;;;;19.23;32.95;98422.69;4994673;28;20450;-71
2023/02/20 10:11:09;;;;;;;12.77;2.83;;;;;;;18.89;33.56;98427.38;4995491;28;20448;-71
2023/02/20 10:13:44;;;;;;;6.93;2.10;;;;;;;18.86;33.97;98417.09;4988391;28;20827;-69
2023/02/20 10:16:28;;;;;;;4.73;2.30;;;;;;;18.72;34.86;98419.50;4963882;28;20433;-68
2023/02/20 10:19:07;;;;;;;4.57;2.10;;;;;;;18.58;34.12;98426.41;4999676;28;20432;-69
2023/02/20 10:21:50;;;;;;;4.73;2.50;;;;;;;18.73;34.30;98421.16;4954642;28;20479;-70
2023/02/20 10:24:31;;;;;;;3.50;2.00;;;;;;;19.19;33.94;98409.75;4978812;28;20520;-70
2023/02/20 10:27:11;;;;;;;8.57;3.00;;;;;;;19.42;33.12;98411.56;5003850;28;20804;-70
2023/02/20 10:29:38;;;;;;;9.77;2.57;;;;;;;19.22;32.73;98413.06;4980645;28;20500;-72
2023/02/20 10:32:08;;;;;;;6.63;2.10;;;;;;;19.10;33.53;98402.03;4969238;28;20438;-71
2023/02/20 10:34:40;;;;;;;7.83;2.70;;;;;;;19.45;33.78;98405.88;4977199;28;20428;-71
2023/02/20 10:37:21;;;;;;;6.67;2.33;;;;;;;19.68;32.68;98404.19;4993422;28;20439;-71
2023/02/20 10:39:56;;;;;;;10.70;2.40;;;;;;;20.17;32.25;98408.16;4974503;28;20448;-70
2023/02/20 10:42:28;;;;;;;16.33;2.30;;;;;;;20.54;32.59;98398.38;4995778;28;20435;-70
2023/02/20 10:45:29;;;;;;;3.80;2.40;;;;;;;20.59;31.37;98401.28;5000361;28;20423;-70
2023/02/20 10:48:04;;;;;;;4.80;3.00;;;;;;;20.91;31.12;98388.56;4941149;28;20519;-72
2023/02/20 10:50:42;;;;;;;7.03;2.30;;;;;;;21.15;31.24;98389.19;4991219;28;21079;-71
2023/02/20 10:53:20;;;;;;;11.00;2.10;;;;;;;21.47;30.34;98389.63;4991377;28;20866;-71
2023/02/20 10:55:58;;;;;;;5.00;2.43;;;;;;;21.83;29.98;98388.66;4994120;28;20485;-71
2023/02/20 10:58:35;;;;;;;7.83;2.50;;;;;;;22.06;29.67;98384.88;4980863;28;21166;-72
2023/02/20 11:01:04;;;;;;;5.93;2.10;;;;;;;22.46;29.34;98381.59;4958304;28;20451;-73
2023/02/20 11:03:56;;;;;;;5.27;2.10;;;;;;;22.73;28.56;98382.50;4973176;28;20435;-71
2023/02/20 11:06:25;;;;;;;7.13;2.10;;;;;;;22.81;28.36;98387.63;4991154;28;20424;-71
2023/02/20 11:08:50;;;;;;;3.43;1.80;;;;;;;22.68;28.35;98377.75;4956098;28;20467;-71
2023/02/20 11:11:23;;;;;;;6.30;2.03;;;;;;;22.80;27.92;98363.78;4974731;28;20444;-70
2023/02/20 11:13:49;;;;;;;8.10;2.23;;;;;;;22.61;27.93;98366.25;4992014;28;20375;-72
2023/02/20 11:16:23;;;;;;;6.20;1.77;;;;;;;22.55;28.24;98367.03;4997591;28;20910;-73
2023/02/20 11:18:53;;;;;;;5.33;2.20;;;;;;;22.23;28.82;98370.19;4978446;28;20193;-71
2023/02/20 11:21:33;;;;;;;8.77;1.97;;;;;;;22.69;28.44;98362.53;4946013;28;20456;-71
2023/02/20 11:24:16;;;;;;;4.30;2.10;;;;;;;22.92;27.84;98366.72;4989004;28;20420;-71
2023/02/20 11:26:42;;;;;;;2.83;1.70;;;;;;;23.22;27.71;98358.31;4985939;28;20425;-71
2023/02/20 11:29:14;;;;;;;4.80;1.80;;;;;;;23.25;27.67;98358.69;4990518;28;20499;-73
2023/02/20 11:31:41;;;;;;;8.67;2.07;;;;;;;23.05;27.41;98353.34;4971655;28;20212;-71
2023/02/20 11:34:14;;;;;;;4.90;2.07;;;;;;;22.90;27.37;98342.03;4973434;28;20435;-71
2023/02/20 11:36:46;;;;;;;4.77;1.97;;;;;;;23.38;27.46;98343.69;4971496;28;20433;-74
2023/02/20 11:39:17;;;;;;;3.60;1.73;;;;;;;23.42;26.85;98340.41;4956796;28;20476;-71
2023/02/20 11:41:43;;;;;;;5.37;2.20;;;;;;;22.85;27.42;98335.44;4984264;28;20420;-72
2023/02/20 11:44:08;;;;;;;3.20;1.50;;;;;;;23.07;27.61;98332.56;4995377;28;20467;-70
2023/02/20 11:46:34;;;;;;;5.37;2.20;;;;;;;23.22;26.95;98331.56;4990731;28;20565;-70
2023/02/20 11:49:05;;;;;;;2.93;1.90;;;;;;;22.89;27.58;98324.34;4981598;28;20641;-70
2023/02/20 11:51:33;;;;;;;4.67;1.70;;;;;;;23.36;27.63;98319.81;4995958;28;20670;-69
2023/02/20 11:54:28;;;;;;;;;;;;;;;;;;;;;
2023/02/20 11:57:04;;;;;;;4.87;1.50;;;;;;;23.71;26.85;98310.72;4957377;28;20433;-69
2023/02/20 11:59:35;;;;;;;4.17;1.70;;;;;;;24.08;26.72;98308.34;5003890;28;20416;-70